ADDS METAR Data INFO
IDs: Format: Raw Decoded Include TAF

Data at: 2052 UTC 24 Jun 2018

KRFI 242035Z AUTO 16009G15KT 10SM SCT055 BKN065 BKN075 35/21 A2989 RMK AO2 T03470213
KRFI 242015Z AUTO 19007KT 10SM SCT050 OVC075 36/21 A2989 RMK AO2 T03550212
KRFI 241955Z AUTO 22006KT 10SM SCT050 OVC075 34/21 A2991 RMK AO2 T03400211
KRFI 241935Z AUTO 15009G16KT 10SM SCT050 SCT060 BKN075 34/21 A2991 RMK AO2 T03410212
KRFI 241915Z AUTO 18010G17KT 10SM SCT050 SCT060 35/21 A2991 RMK AO2 T03480212
KRFI 241855Z AUTO 21007KT 10SM BKN048 BKN060 33/22 A2992 RMK AO2 T03340218
KRFI 241835Z AUTO 24006KT 10SM BKN048 OVC060 33/22 A2992 RMK AO2 T03290216
KRFI 241815Z AUTO 22005KT 10SM BKN048 BKN050 32/21 A2993 RMK AO2 T03200214
KRFI 241755Z AUTO 19007G16KT 160V220 10SM SCT046 BKN050 33/22 A2993 RMK AO2 T03270216 10329 20252
KRFI 241735Z AUTO 19008G14KT 10SM SCT042 BKN049 BKN060 32/21 A2994 RMK AO2 T03150213
KRFI 241715Z AUTO 21005KT 10SM SCT040 SCT060 32/22 A2994 RMK AO2 T03160219
KRFI 241655Z AUTO 20004KT 10SM SCT045 BKN060 31/23 A2995 RMK AO2 T03120225
KRFI 241635Z AUTO 22004KT 10SM SCT037 SCT048 BKN060 30/22 A2997 RMK AO2 T03040220
KRFI 241615Z AUTO 20005KT 10SM SCT036 BKN047 BKN055 30/22 A2997 RMK AO2 T03040221
KRFI 241555Z AUTO 21005KT 10SM SCT029 BKN038 BKN045 31/22 A2997 RMK AO2 T03070222
KRFI 241535Z AUTO 24007KT 190V260 10SM BKN029 BKN040 30/23 A2996 RMK AO2 T02990227
KRFI 241515Z AUTO 22006KT 10SM SCT028 BKN033 BKN042 29/23 A2995 RMK AO2 LTG DSNT N T02910230
KRFI 241455Z AUTO 21005KT 10SM BKN024 OVC030 28/23 A2995 RMK AO2 LTG DSNT N T02820228
KRFI 241435Z AUTO 21006G14KT 10SM BKN024 OVC029 28/23 A2995 RMK AO2 T02800228
KRFI 241415Z AUTO 19009G17KT 170V230 10SM BKN020 BKN027 28/23 A2994 RMK AO2 T02840228
KRFI 241355Z AUTO 21008G20KT 180V240 10SM BKN018 28/23 A2992 RMK AO2 T02760230
KRFI 241335Z AUTO 20007G17KT 170V230 10SM OVC018 27/23 A2992 RMK AO2 T02720230
KRFI 241315Z AUTO 18011G17KT 10SM OVC016 27/23 A2991 RMK AO2 T02700230
KRFI 241255Z AUTO 18011G19KT 10SM OVC014 27/23 A2989 RMK AO2 T02650231
KRFI 241235Z AUTO 19008G16KT 10SM OVC014 26/23 A2988 RMK AO2 T02600231
KRFI 241215Z AUTO 17010G15KT 10SM OVC014 26/23 A2987 RMK AO2 T02550231
KRFI 241155Z AUTO 17009G15KT 10SM BKN012 BKN017 25/23 A2987 RMK AO2 T02520230 10262 20250
KRFI 241135Z AUTO 17012G16KT 10SM BKN012 25/23 A2985 RMK AO2 T02500230
KRFI 241115Z AUTO 16009G15KT 10SM BKN014 25/23 A2985 RMK AO2 T02500230
KRFI 241055Z AUTO 16009KT 140V200 10SM BKN014 25/23 A2987 RMK AO2 T02510231
KRFI 241035Z AUTO 16010G16KT 10SM BKN012 25/23 A2986 RMK AO2 T02510232
KRFI 241015Z AUTO 17009KT 10SM BKN012 25/23 A2987 RMK AO2 T02500232
KRFI 240955Z AUTO 19004KT 10SM BKN012 25/23 A2987 RMK AO2 T02520233
KRFI 240935Z AUTO 19006KT 10SM SCT012 25/23 A2986 RMK AO2 T02510233
KRFI 240915Z AUTO 17008KT 10SM BKN012 BKN017 25/23 A2987 RMK AO2 T02510233
KRFI 240855Z AUTO 18008KT 10SM BKN014 25/23 A2988 RMK AO2 T02520232
KRFI 240835Z AUTO 19006KT 10SM OVC014 26/23 A2990 RMK AO2 T02550232
KRFI 240815Z AUTO 19006KT 10SM BKN016 BKN027 26/23 A2989 RMK AO2 T02550231
KRFI 240755Z AUTO 18005KT 10SM BKN016 OVC025 26/23 A2991 RMK AO2 T02550231
KRFI 240735Z AUTO 20006KT 10SM BKN016 OVC021 26/23 A2991 RMK AO2 T02570231
KRFI 240715Z AUTO 18006KT 10SM OVC018 26/23 A2989 RMK AO2 T02580231
KRFI 240655Z AUTO 18006G15KT 10SM OVC018 26/23 A2989 RMK AO2 T02600232
KRFI 240635Z AUTO 17005KT 10SM BKN018 OVC023 26/24 A2990 RMK AO2 T02600235
KRFI 240615Z AUTO 19005KT 10SM BKN019 BKN023 26/24 A2991 RMK AO2 T02600235
KRFI 240555Z AUTO 00000KT 10SM SCT019 SCT023 26/23 A2990 RMK AO2 T02620234 10340 20262 403560247
KRFI 240535Z AUTO 17005KT 10SM CLR 27/23 A2989 RMK AO2 LTG DSNT W T02670234
KRFI 240515Z AUTO 17007KT 10SM CLR 27/23 A2988 RMK AO2 T02710234
KRFI 240455Z AUTO 17010G14KT 10SM CLR 28/24 A2987 RMK AO2 T02750235
KRFI 240435Z AUTO 17008KT 10SM CLR 28/24 A2987 RMK AO2 T02770236
KRFI 240415Z AUTO 16006KT 10SM CLR 28/24 A2985 RMK AO2 T02800235
KRFI 240335Z AUTO 16008KT 10SM CLR 29/24 A2984 RMK AO2 T02870236
KRFI 240315Z AUTO 16007KT 10SM CLR 29/24 A2983 RMK AO2 T02880235
KRFI 240255Z AUTO 16006KT 10SM CLR 29/23 A2983 RMK AO2 T02910233
KRFI 240235Z AUTO 16007KT 10SM CLR 30/23 A2982 RMK AO2 T02960232
KRFI 240215Z AUTO 15009KT 10SM CLR 30/23 A2981 RMK AO2 T03000227
KRFI 240155Z AUTO 16005KT 10SM CLR 30/23 A2981 RMK AO2 T03010225
KRFI 240135Z AUTO 15006KT 10SM CLR 31/22 A2980 RMK AO2 T03080220
KRFI 240115Z AUTO 15005KT 10SM CLR 32/22 A2980 RMK AO2 T03150217
KRFI 240055Z AUTO 15007KT 10SM SCT060 33/22 A2980 RMK AO2 T03250215
KRFI 240035Z AUTO 14006KT 10SM SCT060 33/22 A2980 RMK AO2 T03330215
KRFI 240015Z AUTO 15007KT 10SM SCT060 34/21 A2980 RMK AO2 T03370212
KRFI 232355Z AUTO 15009KT 10SM SCT060 34/21 A2980 RMK AO2 T03400207 10356 20319
KRFI 232335Z AUTO 14007KT 10SM BKN060 34/21 A2980 RMK AO2 T03420210
KRFI 232315Z AUTO 15008KT 10SM BKN060 34/20 A2980 RMK AO2 T03440204
KRFI 232255Z AUTO 16008KT 10SM SCT060 34/20 A2980 RMK AO2 T03400199
KRFI 232235Z AUTO 16008KT 10SM SCT060 34/20 A2981 RMK AO2 T03410199
KRFI 232215Z AUTO 19005KT 10SM SCT060 35/20 A2981 RMK AO2 T03530202
KRFI 232155Z AUTO 16010G15KT 10SM BKN060 35/19 A2982 RMK AO2 T03510194
KRFI 232135Z AUTO 14013G17KT 10SM SCT060 35/20 A2982 RMK AO2 T03520197
KRFI 232115Z AUTO 15009KT 10SM CLR 35/19 A2983 RMK AO2 T03490192
KRFI 232055Z AUTO 15009G15KT 10SM SCT050 35/20 A2983 RMK AO2 T03500203
KRFI 232035Z AUTO 15012G16KT 10SM SCT050 35/21 A2984 RMK AO2 T03470206
KRFI 232015Z AUTO 16010G15KT 10SM SCT048 35/21 A2984 RMK AO2 T03520210
KRFI 231955Z AUTO 18007G14KT 10SM SCT048 35/22 A2985 RMK AO2 T03460216
KRFI 231935Z AUTO 15009KT 10SM SCT046 34/21 A2985 RMK AO2 T03370214
KRFI 231915Z AUTO 12005KT 10SM SCT044 34/22 A2986 RMK AO2 T03360216
KRFI 231855Z AUTO 15008KT 10SM SCT044 33/22 A2987 RMK AO2 T03330216
KRFI 231835Z AUTO 12006KT 10SM CLR 34/22 A2988 RMK AO2 T03350218
KRFI 231815Z AUTO 17007KT 10SM SCT039 33/21 A2989 RMK AO2 T03260212
KRFI 231755Z AUTO 13006KT 10SM SCT036 32/22 A2990 RMK AO2 T03210217 10321 20248
KRFI 231735Z AUTO 12006KT 10SM SCT036 32/22 A2991 RMK AO2 T03160217
KRFI 231715Z AUTO 00000KT 10SM SCT034 32/22 A2992 RMK AO2 T03150219
KRFI 231655Z AUTO 12004KT 10SM SCT034 31/22 A2993 RMK AO2 T03080216
KRFI 231635Z AUTO 00000KT 10SM SCT030 SCT070 30/22 A2994 RMK AO2 T03040218
KRFI 231615Z AUTO 20004KT 10SM SCT030 SCT070 30/22 A2994 RMK AO2 T02960217
KRFI 231555Z AUTO 24003KT 10SM SCT029 SCT034 30/22 A2995 RMK AO2 T02960223
KRFI 231515Z AUTO 00000KT 10SM BKN024 BKN029 OVC085 29/22 A2995 RMK AO2 T02880223
KRFI 231455Z AUTO 10SM BKN022 BKN028 BKN085 28/22 A2994 RMK AO2 T02790223
KRFI 231435Z AUTO 24005KT 10SM SCT020 28/22 A2993 RMK AO2 T02770224
KRFI 231415Z AUTO 21006KT 10SM BKN016 27/22 A2992 RMK AO2 T02720224
KRFI 231355Z AUTO 18007KT 10SM BKN014 27/23 A2990 RMK AO2 T02680225
KRFI 231335Z AUTO 20007G16KT 180V240 10SM BKN014 27/23 A2989 RMK AO2 T02650227
KRFI 231315Z AUTO 20006KT 10SM BKN012 26/23 A2988 RMK AO2 T02600228
KRFI 231255Z AUTO 19007KT 10SM SCT012 26/23 A2987 RMK AO2 T02590230
KRFI 231235Z AUTO 18008G15KT 10SM CLR 26/23 A2987 RMK AO2 T02550230
KRFI 231215Z AUTO 10SM CLR 25/24 A2987 RMK AO2 T02510235
KRFI 231155Z AUTO 10SM CLR 25/23 A2987 RMK AO2 T02480232 10270 20247
KRFI 231135Z AUTO 10SM CLR 25/24 A2987 RMK AO2 T02470235
KRFI 231115Z AUTO 10SM CLR 25/24 A2987 RMK AO2 T02490239
KRFI 231055Z AUTO 10SM SCT010 25/24 A2988 RMK AO2 T02510241
KRFI 231035Z AUTO 00000KT 7SM OVC010 25/25 A2988 RMK AO2 T02520245
KRFI 231015Z AUTO 19003KT 7SM SCT010 25/25 A2987 RMK AO2 T02530245
KRFI 230955Z AUTO 00000KT 10SM SCT010 26/25 A2987 RMK AO2 T02560245
KRFI 230935Z AUTO 26003KT 10SM BKN010 26/25 A2987 RMK AO2 T02570245
KRFI 230915Z AUTO 20005KT 10SM OVC010 26/25 A2984 RMK AO2 T02600245
KRFI 230855Z AUTO 20003KT 10SM OVC010 26/25 A2984 RMK AO2 T02610245